Time;durP1;ratioP1;P1;durP2;ratioP2;P2;SDS_P1;SDS_P2;PMS_P1;PMS_P2;Temp;Humidity;BMP_temperature;BMP_pressure;BME280_temperature;BME280_humidity;BME280_pressure;Samples;Min_cycle;Max_cycle;Signal;HPM_P1;HPM_P2
2021/01/25 00:01:01;;;;;;;5.70;4.10;;;;;;;-1.02;63.14;93746.13;5010748;28;20092;-69
2021/01/25 00:03:26;;;;;;;4.93;3.13;;;;;;;-0.99;63.48;93750.84;5010455;28;20073;-68
2021/01/25 00:05:52;;;;;;;7.88;3.92;;;;;;;-1.05;63.21;93750.84;5012611;28;20073;-68
2021/01/25 00:08:17;;;;;;;7.53;4.07;;;;;;;-1.20;64.31;93761.31;5010370;28;20038;-68
2021/01/25 00:10:43;;;;;;;7.70;4.80;;;;;;;-1.18;63.65;93767.03;5010672;28;20042;-68
2021/01/25 00:13:10;;;;;;;6.45;4.18;;;;;;;-1.13;64.20;93768.88;5010434;28;20502;-69
2021/01/25 00:15:35;;;;;;;5.30;3.63;;;;;;;-1.20;64.03;93763.94;5010523;28;20026;-68
2021/01/25 00:18:01;;;;;;;8.75;3.90;;;;;;;-1.21;64.03;93767.59;5012257;28;20390;-69
2021/01/25 00:20:26;;;;;;;5.15;4.35;;;;;;;-1.28;63.95;93755.84;5010343;28;20049;-69
2021/01/25 00:22:51;;;;;;;10.10;4.32;;;;;;;-1.31;63.86;93765.00;5010205;28;20123;-69
2021/01/25 00:25:16;;;;;;;6.25;4.03;;;;;;;-1.37;63.96;93753.78;5010513;28;20042;-69
2021/01/25 00:27:42;;;;;;;6.57;4.10;;;;;;;-1.35;64.11;93766.56;5010248;28;20029;-68
2021/01/25 00:30:09;;;;;;;5.68;4.13;;;;;;;-1.48;64.02;93756.69;5012121;28;20037;-69
2021/01/25 00:32:34;;;;;;;4.68;4.03;;;;;;;-1.47;64.36;93764.25;5009982;28;20030;-67
2021/01/25 00:34:59;;;;;;;5.47;3.75;;;;;;;-1.57;64.12;93749.38;4992620;28;20395;-68
2021/01/25 00:37:25;;;;;;;6.13;3.70;;;;;;;-1.62;64.44;93740.78;5010163;28;20030;-69
2021/01/25 00:39:50;;;;;;;7.75;4.05;;;;;;;-1.67;64.57;93738.19;5010290;28;20479;-68
2021/01/25 00:42:15;;;;;;;6.47;4.15;;;;;;;-1.60;64.54;93743.91;5012013;28;20026;-69
2021/01/25 00:44:40;;;;;;;7.78;4.50;;;;;;;-1.67;64.75;93736.34;5009696;28;20049;-68
2021/01/25 00:47:06;;;;;;;5.82;4.15;;;;;;;-1.67;64.62;93740.78;5009836;28;20539;-68
2021/01/25 00:49:31;;;;;;;7.55;4.35;;;;;;;-1.73;64.73;93729.59;4992327;28;20049;-68
2021/01/25 00:51:57;;;;;;;6.50;4.60;;;;;;;-1.84;64.77;93715.78;5009901;28;20041;-70
2021/01/25 00:54:22;;;;;;;6.72;4.57;;;;;;;-1.87;64.37;93725.94;4994381;28;20033;-69
2021/01/25 00:56:48;;;;;;;5.78;5.15;;;;;;;-1.81;65.16;93744.94;5009743;28;20180;-69
2021/01/25 00:59:14;;;;;;;6.57;4.60;;;;;;;-1.90;64.57;93740.25;5010157;28;20049;-68
2021/01/25 01:01:39;;;;;;;5.05;4.40;;;;;;;-1.97;65.27;93734.53;5009768;28;20042;-69
2021/01/25 01:04:04;;;;;;;6.75;4.32;;;;;;;-2.06;65.05;93724.88;5010201;28;20049;-68
2021/01/25 01:06:30;;;;;;;5.78;3.78;;;;;;;-2.07;65.41;93723.31;5009676;28;20033;-68
2021/01/25 01:08:55;;;;;;;6.00;4.10;;;;;;;-2.21;64.57;93713.38;5011270;28;20084;-68
2021/01/25 01:11:20;;;;;;;6.72;3.90;;;;;;;-2.14;65.15;93723.56;5009279;28;20124;-67
2021/01/25 01:13:45;;;;;;;6.57;3.90;;;;;;;-2.22;65.12;93711.84;5009568;28;20038;-68
2021/01/25 01:16:11;;;;;;;4.80;4.18;;;;;;;-2.15;65.60;93722.81;5009481;28;20127;-68
2021/01/25 01:18:36;;;;;;;4.97;3.72;;;;;;;-2.27;65.12;93722.25;5009287;28;20025;-68
2021/01/25 01:21:03;;;;;;;4.93;3.83;;;;;;;-2.25;65.63;93732.41;5010133;28;20492;-68
2021/01/25 01:23:28;;;;;;;5.70;3.42;;;;;;;-2.35;65.51;93717.56;4991473;28;20034;-68
2021/01/25 01:25:54;;;;;;;6.03;4.25;;;;;;;-2.34;66.29;93716.50;4991710;28;20056;-68
2021/01/25 01:28:19;;;;;;;6.28;4.22;;;;;;;-2.42;66.06;93712.56;5008898;28;20426;-68
2021/01/25 01:30:44;;;;;;;6.15;4.40;;;;;;;-2.50;65.90;93707.91;5009198;28;20080;-67
2021/01/25 01:33:09;;;;;;;5.07;4.35;;;;;;;-2.59;66.41;93693.03;5010972;28;20028;-67
2021/01/25 01:35:35;;;;;;;5.90;5.10;;;;;;;-2.60;66.09;93692.25;5009072;28;20121;-68
2021/01/25 01:38:00;;;;;;;8.85;5.07;;;;;;;-2.53;66.46;93707.63;5008913;28;20072;-69
2021/01/25 01:40:25;;;;;;;5.43;4.88;;;;;;;-2.57;66.93;93703.97;4991618;28;20038;-68
2021/01/25 01:42:51;;;;;;;6.85;4.70;;;;;;;-3.00;67.61;93664.31;5008966;28;20048;-68
2021/01/25 01:45:16;;;;;;;5.88;4.38;;;;;;;-2.66;67.32;93707.09;5011009;28;20053;-69
2021/01/25 01:47:42;;;;;;;16.73;5.38;;;;;;;-2.69;67.08;93699.78;5008807;28;20104;-69
2021/01/25 01:50:08;;;;;;;9.88;4.82;;;;;;;-2.71;67.37;93693.28;5009086;28;20092;-69
2021/01/25 01:52:34;;;;;;;9.23;5.40;;;;;;;-2.75;67.00;93694.81;5008658;28;20034;-69
2021/01/25 01:55:00;;;;;;;10.95;5.88;;;;;;;-2.78;67.52;93698.69;5008746;28;20041;-69
2021/01/25 01:57:31;;;;;;;7.05;4.15;;;;;;;-2.83;66.83;93695.31;5008094;28;20148;-68
2021/01/25 01:59:57;;;;;;;9.18;4.78;;;;;;;-2.79;67.44;93707.56;5010820;28;20032;-69
2021/01/25 02:02:22;;;;;;;6.57;4.90;;;;;;;-2.81;67.28;93693.25;4990944;28;20037;-69
2021/01/25 02:04:48;;;;;;;7.40;4.43;;;;;;;-2.83;67.16;93690.88;5008916;28;20046;-67
2021/01/25 02:07:14;;;;;;;9.00;4.63;;;;;;;-2.94;67.61;93673.69;5008665;28;20069;-67
2021/01/25 02:09:44;;;;;;;7.88;5.25;;;;;;;-2.88;67.50;93688.25;5008907;28;20057;-68
2021/01/25 02:12:10;;;;;;;14.02;5.63;;;;;;;-2.96;67.34;93684.34;5011207;28;20512;-70
2021/01/25 02:14:37;;;;;;;9.88;4.88;;;;;;;-2.96;67.79;93686.16;5008918;28;20038;-68
2021/01/25 02:17:04;;;;;;;9.38;5.40;;;;;;;-2.99;67.73;93694.47;5008564;28;20046;-69
2021/01/25 02:19:40;;;;;;;9.70;4.82;;;;;;;-3.02;67.75;93684.56;5008749;28;20049;-68
2021/01/25 02:22:18;;;;;;;8.30;4.93;;;;;;;-3.05;68.02;93682.50;5008287;28;20054;-68
2021/01/25 02:24:52;;;;;;;6.22;5.05;;;;;;;-3.05;67.76;93677.28;5008822;28;20034;-68
2021/01/25 02:27:28;;;;;;;7.40;4.82;;;;;;;-3.12;67.55;93672.34;4992735;28;20395;-68
2021/01/25 02:29:54;;;;;;;7.20;5.30;;;;;;;-3.17;68.05;93661.91;5008200;28;20050;-68
2021/01/25 02:32:20;;;;;;;5.57;4.65;;;;;;;-3.10;68.26;93670.25;5008484;28;20034;-68
2021/01/25 02:34:46;;;;;;;8.73;4.53;;;;;;;-3.11;68.14;93673.88;5008320;28;20049;-69
2021/01/25 02:37:11;;;;;;;10.38;5.38;;;;;;;-3.21;67.98;93645.25;5008296;28;20736;-69
2021/01/25 02:39:38;;;;;;;7.18;4.43;;;;;;;-3.18;67.87;93658.50;5008105;28;20134;-68
2021/01/25 02:42:05;;;;;;;6.90;4.55;;;;;;;-3.15;68.20;93655.41;5010292;28;20113;-69
2021/01/25 02:44:30;;;;;;;7.20;4.45;;;;;;;-3.17;68.24;93646.31;5008561;28;20377;-68
2021/01/25 02:46:58;;;;;;;6.13;4.93;;;;;;;-3.18;67.70;93642.91;5008193;28;20045;-68
2021/01/25 02:49:23;;;;;;;5.60;4.15;;;;;;;-3.27;68.01;93618.44;4990846;28;20038;-68
2021/01/25 02:51:48;;;;;;;9.35;4.50;;;;;;;-3.12;68.35;93633.31;5008108;28;20096;-70
2021/01/25 02:54:13;;;;;;;6.28;4.40;;;;;;;-3.10;68.34;93630.44;4993021;28;20105;-68
2021/01/25 02:56:39;;;;;;;7.95;4.45;;;;;;;-2.99;68.56;93629.44;5008412;28;20053;-67
2021/01/25 02:59:04;;;;;;;9.35;4.38;;;;;;;-2.94;68.01;93622.44;5008498;28;20086;-69
2021/01/25 03:01:30;;;;;;;6.25;3.67;;;;;;;-2.77;68.21;93627.38;5008175;28;20127;-69
2021/01/25 03:03:56;;;;;;;4.65;3.38;;;;;;;-2.56;68.10;93625.59;5008385;28;20116;-68
2021/01/25 03:06:21;;;;;;;5.32;3.10;;;;;;;-2.39;67.72;93620.16;5010313;28;20054;-69
2021/01/25 03:08:47;;;;;;;8.43;3.17;;;;;;;-2.15;66.88;93623.81;5011517;28;20065;-68
2021/01/25 03:11:12;;;;;;;4.65;3.08;;;;;;;-1.93;66.46;93633.16;5011954;28;20165;-68
2021/01/25 03:13:37;;;;;;;6.63;3.00;;;;;;;-1.86;66.32;93629.22;5011740;28;20104;-69
2021/01/25 03:16:03;;;;;;;6.78;3.42;;;;;;;-1.70;65.82;93629.97;5011869;28;20037;-70
2021/01/25 03:18:28;;;;;;;3.13;2.53;;;;;;;-1.77;65.21;93611.25;4993817;28;20116;-68
2021/01/25 03:20:55;;;;;;;4.78;3.38;;;;;;;-1.68;64.53;93627.91;5012404;28;20018;-68
2021/01/25 03:23:21;;;;;;;4.90;2.75;;;;;;;-1.65;64.33;93618.75;5010605;28;20046;-68
2021/01/25 03:25:46;;;;;;;8.52;3.05;;;;;;;-1.72;63.93;93608.63;5011424;28;20038;-69
2021/01/25 03:28:12;;;;;;;4.15;3.05;;;;;;;-1.64;63.74;93618.53;5011216;28;20050;-69
2021/01/25 03:30:38;;;;;;;6.88;3.30;;;;;;;-1.63;63.78;93614.88;5011337;28;20541;-68
2021/01/25 03:33:04;;;;;;;4.32;2.42;;;;;;;-1.68;63.62;93614.09;5013152;28;20108;-69
2021/01/25 03:35:30;;;;;;;3.78;2.20;;;;;;;-1.80;63.30;93603.16;5011365;28;20041;-69
2021/01/25 03:37:55;;;;;;;2.97;2.10;;;;;;;-1.82;63.41;93611.25;5011167;28;20502;-68
2021/01/25 03:40:20;;;;;;;5.90;2.63;;;;;;;-1.96;63.66;93605.78;5011203;28;20554;-68
2021/01/25 03:42:45;;;;;;;6.70;3.10;;;;;;;-1.96;63.11;93618.03;5011134;28;20061;-68
2021/01/25 03:45:11;;;;;;;3.67;2.50;;;;;;;-2.10;62.98;93615.19;5013128;28;20030;-70
2021/01/25 03:47:36;;;;;;;3.33;2.20;;;;;;;-2.12;64.01;93633.69;5010907;28;20049;-68
2021/01/25 03:50:02;;;;;;;2.65;2.00;;;;;;;-2.21;63.97;93618.84;5010903;28;20073;-70
2021/01/25 03:52:28;;;;;;;3.50;1.98;;;;;;;-2.28;64.13;93607.91;5010720;28;20046;-69
2021/01/25 03:54:53;;;;;;;2.42;1.90;;;;;;;-2.23;64.01;93619.13;5011035;28;20092;-69
2021/01/25 03:57:18;;;;;;;3.60;2.10;;;;;;;-2.24;63.80;93620.16;5012783;28;20118;-69
2021/01/25 03:59:44;;;;;;;5.43;2.20;;;;;;;-2.31;63.89;93609.22;5010912;28;20088;-70
2021/01/25 04:02:12;;;;;;;2.55;2.30;;;;;;;-2.33;63.84;93613.91;5010592;28;20389;-69
2021/01/25 04:04:38;;;;;;;2.38;1.80;;;;;;;-2.29;64.20;93622.00;5010785;28;20030;-69
2021/01/25 04:07:03;;;;;;;5.55;2.47;;;;;;;-2.34;63.80;93625.38;4992784;28;20523;-69
2021/01/25 04:09:28;;;;;;;4.93;2.38;;;;;;;-2.45;63.72;93619.38;4993029;28;20029;-68
2021/01/25 04:11:53;;;;;;;5.00;2.30;;;;;;;-2.53;63.67;93611.28;5012498;28;20057;-69
2021/01/25 04:14:19;;;;;;;3.15;2.10;;;;;;;-2.41;64.25;93640.44;5010689;28;20045;-68
2021/01/25 04:16:44;;;;;;;3.75;2.30;;;;;;;-2.47;63.57;93626.66;5010375;28;20042;-68
2021/01/25 04:19:09;;;;;;;3.25;1.98;;;;;;;-2.43;63.98;93629.53;5009869;28;20362;-68
2021/01/25 04:21:35;;;;;;;3.28;2.35;;;;;;;-2.42;63.64;93634.47;5010056;28;20026;-69
2021/01/25 04:24:00;;;;;;;2.03;1.75;;;;;;;-2.45;64.15;93632.41;5012348;28;20496;-68
2021/01/25 04:26:25;;;;;;;2.50;1.70;;;;;;;-2.39;63.72;93633.19;5010266;28;20061;-69
2021/01/25 04:28:51;;;;;;;3.05;1.55;;;;;;;-2.42;63.75;93628.47;5009799;28;20562;-68
2021/01/25 04:31:16;;;;;;;2.47;1.60;;;;;;;-2.37;63.80;93625.88;5010292;28;20073;-68
2021/01/25 04:33:42;;;;;;;2.65;1.67;;;;;;;-2.37;63.33;93628.47;5010568;28;20021;-68
2021/01/25 04:36:08;;;;;;;2.47;1.67;;;;;;;-2.42;63.01;93612.84;5012072;28;20657;-68
2021/01/25 04:38:34;;;;;;;2.00;1.73;;;;;;;-2.37;62.68;93620.66;5009865;28;20065;-69
2021/01/25 04:41:00;;;;;;;3.22;1.73;;;;;;;-2.70;62.21;93614.16;5009942;28;20046;-69
2021/01/25 04:43:26;;;;;;;2.92;1.58;;;;;;;-2.98;61.61;93620.59;4992104;28;20030;-69
2021/01/25 04:45:53;;;;;;;2.33;1.50;;;;;;;-2.61;62.09;93620.41;5009962;28;20088;-68
2021/01/25 04:48:18;;;;;;;2.90;1.48;;;;;;;-2.61;61.30;93620.41;5011624;28;20026;-69
2021/01/25 04:50:44;;;;;;;1.98;1.40;;;;;;;-2.40;61.45;93634.22;5009615;28;20044;-68
2021/01/25 04:53:10;;;;;;;1.38;1.08;;;;;;;-2.66;60.60;93589.19;4991971;28;20041;-69
2021/01/25 04:55:36;;;;;;;3.03;1.35;;;;;;;-2.38;60.17;93634.75;5009729;28;20038;-69
2021/01/25 04:58:02;;;;;;;3.88;1.40;;;;;;;-2.36;59.69;93636.03;5009531;28;20042;-69
2021/01/25 05:00:27;;;;;;;2.58;1.23;;;;;;;-2.36;60.22;93628.22;5009673;28;20404;-68
2021/01/25 05:02:53;;;;;;;4.85;1.30;;;;;;;-2.25;60.47;93629.03;5011379;28;20109;-68
2021/01/25 05:05:19;;;;;;;1.90;1.50;;;;;;;-2.29;60.31;93609.75;5009703;28;20503;-66
2021/01/25 05:07:45;;;;;;;3.72;1.55;;;;;;;-2.18;59.60;93619.09;5009455;28;20046;-67
2021/01/25 05:10:11;;;;;;;3.30;2.50;;;;;;;-2.04;60.27;93629.78;5009580;28;20045;-69
2021/01/25 05:12:47;;;;;;;3.42;1.60;;;;;;;-1.92;60.59;93627.69;5009397;28;20033;-69
2021/01/25 05:15:28;;;;;;;1.83;1.35;;;;;;;-1.77;59.66;93629.47;5011507;28;20064;-70
2021/01/25 05:18:00;;;;;;;3.20;1.30;;;;;;;-1.61;59.23;93627.63;4992157;28;20045;-71
2021/01/25 05:20:28;;;;;;;5.30;1.77;;;;;;;-1.40;58.94;93633.56;4991876;28;20092;-71
2021/01/25 05:22:55;;;;;;;2.30;1.70;;;;;;;-1.23;58.34;93628.78;5009529;28;20557;-74
2021/01/25 05:25:29;;;;;;;10.98;1.60;;;;;;;-1.06;58.17;93631.09;4991993;28;20032;-68
2021/01/25 05:27:56;;;;;;;2.60;1.45;;;;;;;-0.97;57.45;93631.28;5010278;28;20088;-68
2021/01/25 05:30:22;;;;;;;2.47;1.50;;;;;;;-1.09;57.17;93598.47;5011879;28;20030;-69
2021/01/25 05:32:49;;;;;;;5.70;1.58;;;;;;;-0.77;57.16;93633.78;4993432;28;20041;-67
2021/01/25 05:35:22;;;;;;;2.95;1.42;;;;;;;-0.67;56.61;93633.75;5010298;28;20491;-68
2021/01/25 05:37:55;;;;;;;9.50;1.33;;;;;;;-0.59;55.24;93627.94;5010304;28;20030;-68
2021/01/25 05:40:22;;;;;;;3.50;1.23;;;;;;;-0.50;55.16;93636.00;5010230;28;20045;-65
2021/01/25 05:42:48;;;;;;;2.90;0.98;;;;;;;-0.51;55.18;93621.38;5009747;28;20380;-69
2021/01/25 05:45:14;;;;;;;7.03;1.45;;;;;;;-0.43;54.08;93628.63;4994321;28;20052;-72
2021/01/25 05:47:44;;;;;;;1.27;1.00;;;;;;;-0.38;53.99;93620.75;5009781;28;20400;-71
2021/01/25 05:50:11;;;;;;;5.78;1.30;;;;;;;-0.21;54.39;93638.66;5009326;28;20038;-71
2021/01/25 05:52:41;;;;;;;4.00;0.93;;;;;;;-0.21;53.59;93625.59;5009806;28;20049;-71
2021/01/25 05:55:07;;;;;;;4.10;1.25;;;;;;;-0.06;52.66;93635.16;5006392;28;20046;-71
2021/01/25 05:57:32;;;;;;;5.80;1.27;;;;;;;0.02;52.64;93652.88;5006113;28;20026;-71
2021/01/25 05:59:58;;;;;;;3.13;1.33;;;;;;;-0.34;50.88;93645.28;5011888;28;20026;-70
2021/01/25 06:02:24;;;;;;;3.22;1.25;;;;;;;-0.13;51.64;93652.97;5009656;28;20359;-71
2021/01/25 06:04:49;;;;;;;4.13;1.67;;;;;;;0.02;52.07;93657.31;5010020;28;20045;-71
2021/01/25 06:07:16;;;;;;;3.47;1.33;;;;;;;0.07;51.95;93657.28;5009623;28;20049;-71
2021/01/25 06:09:55;;;;;;;4.65;1.20;;;;;;;-0.21;49.77;93664.78;5009857;28;20163;-70
2021/01/25 06:12:32;;;;;;;7.35;1.70;;;;;;;-1.78;53.82;93692.31;4993812;28;20030;-72
2021/01/25 06:15:06;;;;;;;7.18;1.50;;;;;;;-1.02;53.39;93680.91;5010435;28;20076;-71
2021/01/25 06:17:34;;;;;;;3.30;1.15;;;;;;;-0.99;52.62;93664.72;5009480;28;20141;-68
2021/01/25 06:20:05;;;;;;;7.05;1.50;;;;;;;-0.99;53.18;93665.50;5009008;28;20546;-68
2021/01/25 06:22:30;;;;;;;9.25;2.10;;;;;;;-0.63;53.05;93667.94;5008905;28;20083;-68
2021/01/25 06:24:58;;;;;;;9.27;1.92;;;;;;;-0.37;53.09;93671.16;5009491;28;20058;-68
2021/01/25 06:27:25;;;;;;;9.95;2.22;;;;;;;-0.58;51.16;93671.28;5010990;28;20123;-69
2021/01/25 06:29:51;;;;;;;22.52;2.88;;;;;;;-0.74;51.73;93679.50;5009414;28;20096;-67
2021/01/25 06:32:17;;;;;;;10.52;1.60;;;;;;;-0.63;52.48;93671.31;5009443;28;20045;-69
2021/01/25 06:34:43;;;;;;;18.63;2.70;;;;;;;-0.34;52.06;93671.41;5009126;28;20046;-69
2021/01/25 06:37:09;;;;;;;10.45;2.40;;;;;;;-0.23;52.48;93679.97;5008742;28;20765;-67
2021/01/25 06:39:41;;;;;;;16.08;1.92;;;;;;;-0.10;51.90;93675.97;5009167;28;20068;-68
2021/01/25 06:42:07;;;;;;;12.10;1.77;;;;;;;-0.83;52.71;93681.88;5011887;28;20053;-68
2021/01/25 06:44:34;;;;;;;29.45;2.30;;;;;;;-0.74;52.64;93676.88;5013069;28;20128;-69
2021/01/25 06:47:03;;;;;;;11.27;1.95;;;;;;;-0.61;53.21;93684.91;5012826;28;20049;-68
2021/01/25 06:49:30;;;;;;;31.48;3.90;;;;;;;-0.50;53.48;93682.25;5012785;28;20042;-67
2021/01/25 06:51:56;;;;;;;21.55;2.88;;;;;;;-0.54;53.58;93692.44;5012696;28;20491;-68
2021/01/25 06:54:24;;;;;;;15.75;3.17;;;;;;;-0.58;53.52;93694.81;5015071;28;20021;-69
2021/01/25 06:56:54;;;;;;;11.30;1.67;;;;;;;-0.66;54.31;93695.38;5013142;28;20125;-68
2021/01/25 06:59:21;;;;;;;18.13;2.40;;;;;;;-0.39;54.08;93681.91;5012821;28;20045;-68
2021/01/25 07:01:52;;;;;;;21.42;1.88;;;;;;;-0.09;53.40;93698.44;4994832;28;20104;-69
2021/01/25 07:04:25;;;;;;;11.75;2.22;;;;;;;-0.02;53.13;93689.22;5012695;28;20045;-70
2021/01/25 07:06:53;;;;;;;19.30;2.75;;;;;;;0.28;53.51;93697.88;5012080;28;20045;-71
2021/01/25 07:09:27;;;;;;;14.52;2.17;;;;;;;0.51;52.98;93720.72;5014628;28;20030;-69
2021/01/25 07:12:03;;;;;;;19.75;2.22;;;;;;;0.59;52.67;93700.22;5012708;28;20065;-73
2021/01/25 07:14:30;;;;;;;28.27;2.70;;;;;;;0.84;52.73;93715.69;5012997;28;20030;-70
2021/01/25 07:16:57;;;;;;;9.63;1.85;;;;;;;0.90;52.02;93714.56;4994838;28;20041;-78
2021/01/25 07:19:23;;;;;;;7.15;2.53;;;;;;;1.03;52.56;93732.25;5012686;28;20084;-71
2021/01/25 07:21:52;;;;;;;10.18;2.83;;;;;;;1.01;52.97;93736.19;5011694;28;20128;-68
2021/01/25 07:24:24;;;;;;;5.55;1.83;;;;;;;1.09;53.42;93732.19;5014104;28;20030;-69
2021/01/25 07:26:54;;;;;;;8.70;2.10;;;;;;;1.09;53.20;93713.84;5012034;28;20466;-67
2021/01/25 07:29:20;;;;;;;8.10;2.35;;;;;;;1.26;53.44;93735.91;5012305;28;20034;-68
2021/01/25 07:31:46;;;;;;;7.53;2.20;;;;;;;1.33;53.45;93740.00;5011987;28;20153;-70
2021/01/25 07:34:13;;;;;;;5.53;1.90;;;;;;;1.28;54.16;93735.63;5012259;28;20068;-68
2021/01/25 07:36:39;;;;;;;9.73;1.60;;;;;;;1.21;55.46;93729.94;5012390;28;20172;-68
2021/01/25 07:39:10;;;;;;;6.85;1.60;;;;;;;1.11;56.94;93727.44;5013705;28;20037;-68
2021/01/25 07:41:36;;;;;;;14.68;2.40;;;;;;;1.02;57.73;93725.44;4994201;28;20099;-67
2021/01/25 07:44:03;;;;;;;3.38;1.45;;;;;;;0.90;58.35;93722.41;5012116;28;20038;-67
2021/01/25 07:46:28;;;;;;;5.18;1.55;;;;;;;0.87;58.70;93717.75;5011793;28;20057;-67
2021/01/25 07:48:55;;;;;;;4.80;1.58;;;;;;;0.82;59.51;93720.41;5011486;28;20129;-69
2021/01/25 07:51:25;;;;;;;6.63;1.40;;;;;;;0.80;60.00;93719.91;5012562;28;20472;-69
2021/01/25 07:53:51;;;;;;;6.65;1.92;;;;;;;0.75;60.48;93717.34;4993981;28;20440;-68
2021/01/25 07:56:18;;;;;;;5.20;1.50;;;;;;;0.78;61.05;93717.56;4994388;28;20038;-68
2021/01/25 07:58:46;;;;;;;5.38;1.27;;;;;;;0.77;61.30;93713.41;5011650;28;20056;-69
2021/01/25 08:01:26;;;;;;;3.45;1.10;;;;;;;0.83;61.49;93715.97;5011698;28;20045;-68
2021/01/25 08:03:55;;;;;;;1.90;1.08;;;;;;;0.80;61.67;93713.88;5011852;28;20084;-68
2021/01/25 08:06:21;;;;;;;2.67;1.23;;;;;;;0.43;61.87;93674.22;5013454;28;20104;-68
2021/01/25 08:08:49;;;;;;;3.85;1.33;;;;;;;0.77;61.87;93712.63;5011377;28;20038;-67
2021/01/25 08:11:15;;;;;;;2.97;1.10;;;;;;;0.80;61.66;93706.81;4993743;28;20042;-68
2021/01/25 08:13:54;;;;;;;9.70;1.17;;;;;;;0.93;61.49;93724.50;5011671;28;20041;-69
2021/01/25 08:16:23;;;;;;;2.35;1.40;;;;;;;0.93;61.49;93713.25;5011302;28;20038;-69
2021/01/25 08:19:22;;;;;;;5.15;1.33;;;;;;;0.85;62.42;93704.13;5011373;28;20357;-69
2021/01/25 08:22:13;;;;;;;4.75;1.20;;;;;;;0.96;61.80;93712.66;5010614;28;20535;-69
2021/01/25 08:24:38;;;;;;;1.75;1.17;;;;;;;1.00;62.30;93714.44;5011357;28;20036;-68
2021/01/25 08:27:06;;;;;;;1.38;1.17;;;;;;;0.90;61.42;93726.88;5013200;28;20026;-69
2021/01/25 08:29:32;;;;;;;1.55;1.13;;;;;;;0.92;62.37;93715.06;5010815;28;20057;-69
2021/01/25 08:31:57;;;;;;;1.92;1.30;;;;;;;0.99;62.63;93731.22;5011081;28;20503;-68
2021/01/25 08:34:32;;;;;;;1.95;1.10;;;;;;;1.02;62.39;93727.25;5010983;28;20140;-67
2021/01/25 08:37:10;;;;;;;1.50;1.40;;;;;;;1.12;62.74;93721.13;5010950;28;20076;-69
2021/01/25 08:39:40;;;;;;;1.58;1.17;;;;;;;1.28;62.52;93722.53;5010887;28;20045;-69
2021/01/25 08:42:15;;;;;;;2.13;1.45;;;;;;;1.38;62.12;93730.25;4994932;28;20026;-69
2021/01/25 08:44:43;;;;;;;2.67;1.10;;;;;;;1.47;62.31;93727.78;4993508;28;20500;-68
2021/01/25 08:47:09;;;;;;;2.10;1.30;;;;;;;1.58;62.06;93736.31;5010121;28;20042;-69
2021/01/25 08:49:38;;;;;;;2.97;1.17;;;;;;;1.67;61.60;93734.63;4992941;28;20046;-68
2021/01/25 08:52:07;;;;;;;1.27;0.95;;;;;;;1.70;61.60;93739.31;4992377;28;20049;-69
2021/01/25 08:54:39;;;;;;;2.55;1.40;;;;;;;1.74;61.91;93735.03;5011040;28;20383;-68
2021/01/25 08:57:23;;;;;;;4.07;2.00;;;;;;;1.63;62.11;93725.75;5012646;28;20034;-69
2021/01/25 08:59:48;;;;;;;4.38;1.58;;;;;;;1.72;62.13;93724.06;5010617;28;20038;-68
2021/01/25 09:02:21;;;;;;;4.10;1.40;;;;;;;1.86;61.62;93745.91;5010521;28;20030;-68
2021/01/25 09:04:51;;;;;;;2.67;1.63;;;;;;;1.87;62.15;93742.22;5010341;28;20100;-69
2021/01/25 09:07:18;;;;;;;2.00;1.30;;;;;;;1.80;62.26;93734.72;5010415;28;20050;-70
2021/01/25 09:09:46;;;;;;;1.83;1.50;;;;;;;1.74;62.52;93732.41;5010474;28;20045;-71
2021/01/25 09:12:12;;;;;;;4.30;1.75;;;;;;;1.78;62.80;93726.34;4994853;28;20099;-72
2021/01/25 09:14:37;;;;;;;2.40;1.60;;;;;;;1.90;62.41;93728.56;5010722;28;20555;-83
2021/01/25 09:17:03;;;;;;;2.45;1.90;;;;;;;2.07;63.07;93755.03;4993058;28;20065;-71
2021/01/25 09:19:28;;;;;;;2.55;1.80;;;;;;;1.94;63.03;93729.53;5010162;28;20096;-71
2021/01/25 09:21:53;;;;;;;2.85;2.10;;;;;;;2.00;63.36;93736.28;5009521;28;20798;-75
2021/01/25 09:24:19;;;;;;;2.55;1.70;;;;;;;2.24;63.33;93759.78;5013047;28;20556;-81
2021/01/25 09:26:45;;;;;;;5.78;2.13;;;;;;;2.29;63.24;93764.94;4992821;28;20108;-74
2021/01/25 09:29:10;;;;;;;2.42;1.90;;;;;;;2.34;63.53;93761.47;5009969;28;20165;-73
2021/01/25 09:31:35;;;;;;;4.30;2.03;;;;;;;2.36;64.29;93751.50;5009880;28;20037;-80
2021/01/25 09:34:01;;;;;;;6.57;1.75;;;;;;;2.54;63.76;93761.16;5010441;28;20057;-81
2021/01/25 09:36:26;;;;;;;4.07;1.60;;;;;;;2.41;64.16;93725.16;5010972;28;20026;-75
2021/01/25 09:38:51;;;;;;;2.95;1.52;;;;;;;2.72;63.44;93759.56;5012119;28;20038;-80
2021/01/25 09:41:17;;;;;;;3.22;1.40;;;;;;;2.77;63.94;93769.22;5009616;28;20443;-75
2021/01/25 09:43:43;;;;;;;1.90;1.33;;;;;;;2.92;64.28;93782.09;5010124;28;20125;-80
2021/01/25 09:46:08;;;;;;;2.50;1.40;;;;;;;2.76;64.85;93757.91;5009682;28;20061;-73
2021/01/25 09:48:33;;;;;;;2.00;1.20;;;;;;;2.64;65.63;93785.69;5009831;28;20129;-75
2021/01/25 09:50:59;;;;;;;3.90;1.60;;;;;;;2.49;67.85;93789.34;5012413;28;20022;-76
2021/01/25 09:53:24;;;;;;;4.43;1.83;;;;;;;2.11;69.25;93778.88;5009928;28;20037;-71
2021/01/25 09:55:50;;;;;;;2.83;1.60;;;;;;;2.11;70.01;93763.13;5010506;28;20128;-70
2021/01/25 09:58:16;;;;;;;3.78;1.60;;;;;;;2.25;70.17;93795.47;4991708;28;20049;-70
2021/01/25 10:00:41;;;;;;;1.83;1.42;;;;;;;2.12;71.06;93790.91;5011560;28;20048;-73
2021/01/25 10:03:07;;;;;;;1.95;1.60;;;;;;;1.97;71.63;93773.53;5020808;28;20108;-67
2021/01/25 10:05:32;;;;;;;3.25;2.05;;;;;;;1.61;73.85;93788.94;5009831;28;20065;-69
2021/01/25 10:07:58;;;;;;;3.47;1.88;;;;;;;1.36;74.50;93773.53;5009920;28;20038;-68
2021/01/25 10:10:25;;;;;;;3.10;1.75;;;;;;;1.73;74.40;93789.31;5009716;28;20523;-76
2021/01/25 10:12:50;;;;;;;1.95;1.33;;;;;;;1.64;74.82;93792.84;5009726;28;20042;-69
2021/01/25 10:15:17;;;;;;;1.90;1.80;;;;;;;1.31;75.24;93808.41;5011812;28;20034;-72
2021/01/25 10:17:43;;;;;;;2.13;1.80;;;;;;;1.71;75.29;93811.66;5011326;28;20068;-71
2021/01/25 10:20:10;;;;;;;2.55;2.05;;;;;;;1.66;74.58;93788.13;5013032;28;20524;-67
2021/01/25 10:22:35;;;;;;;1.90;1.70;;;;;;;2.10;74.57;93814.03;5013445;28;20046;-71
2021/01/25 10:25:01;;;;;;;2.40;1.98;;;;;;;2.16;73.81;93812.91;5013585;28;20057;-67
2021/01/25 10:27:27;;;;;;;2.45;2.25;;;;;;;1.74;75.53;93808.44;5013105;28;20562;-67
2021/01/25 10:29:52;;;;;;;4.05;2.20;;;;;;;1.99;75.08;93808.13;5015486;28;20034;-73
2021/01/25 10:32:19;;;;;;;3.08;2.15;;;;;;;1.70;74.83;93779.41;4994899;28;20054;-67
2021/01/25 10:34:44;;;;;;;2.90;2.25;;;;;;;1.36;77.03;93816.22;5013122;28;20462;-70
2021/01/25 10:37:10;;;;;;;2.83;2.05;;;;;;;1.75;76.29;93789.06;4995488;28;20133;-61
2021/01/25 10:39:35;;;;;;;3.45;2.35;;;;;;;1.62;76.62;93813.31;5014266;28;20501;-67
2021/01/25 10:42:01;;;;;;;3.38;2.30;;;;;;;0.93;79.78;93833.66;5015046;28;20041;-65
2021/01/25 10:44:26;;;;;;;3.63;2.40;;;;;;;1.19;79.44;93837.63;5013484;28;20078;-64
2021/01/25 10:46:52;;;;;;;5.03;2.75;;;;;;;1.09;79.33;93835.09;4995167;28;20050;-68
2021/01/25 10:49:17;;;;;;;5.68;2.47;;;;;;;1.11;80.06;93821.72;5012814;28;20089;-66
2021/01/25 10:51:42;;;;;;;5.05;2.47;;;;;;;0.88;80.36;93821.41;5011335;28;20365;-66
2021/01/25 10:54:08;;;;;;;2.30;1.92;;;;;;;1.87;78.88;93833.22;5014995;28;20053;-66
2021/01/25 10:56:33;;;;;;;3.20;2.00;;;;;;;1.66;77.87;93817.72;5013030;28;20044;-66
2021/01/25 10:58:58;;;;;;;2.65;1.67;;;;;;;1.63;77.81;93807.00;5012916;28;20125;-67
2021/01/25 11:01:24;;;;;;;1.95;1.60;;;;;;;1.90;76.21;93822.94;4995196;28;20052;-68
2021/01/25 11:03:49;;;;;;;2.35;1.88;;;;;;;1.77;76.78;93839.34;5013038;28;20062;-67
2021/01/25 11:06:16;;;;;;;2.30;2.10;;;;;;;1.84;78.43;93845.03;5014852;28;20113;-66
2021/01/25 11:08:42;;;;;;;1.80;1.70;;;;;;;1.18;79.72;93858.84;5012436;28;20583;-66
2021/01/25 11:11:08;;;;;;;3.05;1.80;;;;;;;1.71;78.96;93843.09;4995107;28;20148;-66
2021/01/25 11:13:33;;;;;;;6.18;1.50;;;;;;;1.41;79.91;93852.06;5012816;28;20121;-67
2021/01/25 11:15:59;;;;;;;2.33;1.55;;;;;;;1.20;80.31;93854.09;5012679;28;20070;-66
2021/01/25 11:18:24;;;;;;;1.70;1.60;;;;;;;1.43;79.92;93837.63;5014337;28;20026;-66
2021/01/25 11:20:50;;;;;;;2.08;1.85;;;;;;;1.50;79.51;93847.78;5011889;28;20054;-66
2021/01/25 11:23:15;;;;;;;1.70;1.55;;;;;;;1.52;79.72;93854.28;5011346;28;20431;-66
2021/01/25 11:25:41;;;;;;;2.03;1.42;;;;;;;1.58;79.10;93870.75;5012662;28;20042;-67
2021/01/25 11:28:06;;;;;;;3.28;1.65;;;;;;;0.99;81.70;93859.53;5012062;28;20034;-66
2021/01/25 11:30:31;;;;;;;1.92;1.80;;;;;;;1.04;81.88;93853.47;5012412;28;20026;-66
2021/01/25 11:32:57;;;;;;;2.28;1.60;;;;;;;0.91;81.67;93867.19;4996105;28;20037;-66
2021/01/25 11:35:22;;;;;;;4.68;1.50;;;;;;;1.44;80.50;93875.09;4994850;28;20515;-67